Time;durP1;ratioP1;P1;durP2;ratioP2;P2;SDS_P1;SDS_P2;PMS_P1;PMS_P2;Temp;Humidity;BMP_temperature;BMP_pressure;BME280_temperature;BME280_humidity;BME280_pressure;Samples;Min_cycle;Max_cycle;Signal;HPM_P1;HPM_P2
2023/05/29 00:01:35;;;;;;;;;;;16.60;78.10;;;;;;6154281;23;19905;-90
2023/05/29 00:04:01;;;;;;;;;;;16.60;78.10;;;;;;6153534;23;20317;-90
2023/05/29 00:06:27;;;;;;;;;;;16.60;78.20;;;;;;6153605;23;19983;-90
2023/05/29 00:08:52;;;;;;;;;;;16.60;78.20;;;;;;6153551;23;20246;-90
2023/05/29 00:11:18;;;;;;;;;;;16.60;78.20;;;;;;6154268;23;19916;-90
2023/05/29 00:13:43;;;;;;;;;;;16.60;78.20;;;;;;6153766;23;19912;-90
2023/05/29 00:16:09;;;;;;;;;;;16.50;78.20;;;;;;6152875;23;19927;-90
2023/05/29 00:18:35;;;;;;;;;;;16.60;78.20;;;;;;6152923;23;19908;-90
2023/05/29 00:21:00;;;;;;;;;;;16.60;78.30;;;;;;6152618;23;19911;-90
2023/05/29 00:23:26;;;;;;;;;;;16.60;78.30;;;;;;6151968;23;20330;-90
2023/05/29 00:25:51;;;;;;;;;;;16.50;78.20;;;;;;6152778;23;19976;-90
2023/05/29 00:28:17;;;;;;;;;;;16.50;78.20;;;;;;6153523;23;19919;-90
2023/05/29 00:30:42;;;;;;;;;;;16.50;78.20;;;;;;6153398;23;19912;-90
2023/05/29 00:33:08;;;;;;;;;;;16.60;78.30;;;;;;6153799;23;19905;-90
2023/05/29 00:35:33;;;;;;;;;;;16.50;78.20;;;;;;6153343;23;19911;-90
2023/05/29 00:37:59;;;;;;;;;;;16.50;78.20;;;;;;6153324;23;20482;-90
2023/05/29 00:40:25;;;;;;;;;;;16.50;78.20;;;;;;6153925;23;19930;-90
2023/05/29 00:42:50;;;;;;;;;;;16.50;78.20;;;;;;6153821;23;19912;-90
2023/05/29 00:45:16;;;;;;;;;;;16.50;78.30;;;;;;6153184;23;19971;-90
2023/05/29 00:47:41;;;;;;;;;;;16.50;78.30;;;;;;6153460;23;19905;-90
2023/05/29 00:50:08;;;;;;;;;;;16.50;78.10;;;;;;6153945;23;20487;-90
2023/05/29 00:52:34;;;;;;;;;;;16.50;78.30;;;;;;6153517;23;20511;-90
2023/05/29 00:55:02;;;;;;;;;;;16.50;78.20;;;;;;6153290;23;19904;-90
2023/05/29 00:57:27;;;;;;;;;;;16.50;78.20;;;;;;6155129;23;19909;-90
2023/05/29 00:59:53;;;;;;;;;;;16.50;78.10;;;;;;6155566;23;19905;-90
2023/05/29 01:02:20;;;;;;;;;;;16.50;78.10;;;;;;6155487;23;19942;-90
2023/05/29 01:04:46;;;;;;;;;;;16.50;77.90;;;;;;6154913;23;19912;-90
2023/05/29 01:07:12;;;;;;;;;;;16.50;78.10;;;;;;6155359;23;19908;-90
2023/05/29 01:09:38;;;;;;;;;;;16.40;78.20;;;;;;6155434;23;20372;-89
2023/05/29 01:12:03;;;;;;;;;;;16.40;78.10;;;;;;6155738;23;19920;-90
2023/05/29 01:14:36;;;;;;;;;;;16.50;78.20;;;;;;6154730;23;19944;-90
2023/05/29 01:17:03;;;;;;;;;;;16.40;78.10;;;;;;6155058;23;20293;-90
2023/05/29 01:19:32;;;;;;;;;;;16.40;78.70;;;;;;6155442;23;19939;-90
2023/05/29 01:22:18;;;;;;;;;;;16.40;78.00;;;;;;6155566;23;19905;-89
2023/05/29 01:24:58;;;;;;;;;;;16.40;78.00;;;;;;6154220;23;20112;-89
2023/05/29 01:27:25;;;;;;;;;;;16.40;77.90;;;;;;6154703;23;19986;-90
2023/05/29 01:29:51;;;;;;;;;;;16.40;78.00;;;;;;6154980;23;19921;-90
2023/05/29 01:32:17;;;;;;;;;;;16.30;78.00;;;;;;6155526;23;20310;-90
2023/05/29 01:34:42;;;;;;;;;;;16.40;77.90;;;;;;6155222;23;19984;-90
2023/05/29 01:37:08;;;;;;;;;;;16.40;77.80;;;;;;6155520;23;19912;-90
2023/05/29 01:39:34;;;;;;;;;;;16.40;77.90;;;;;;6155362;23;19905;-90
2023/05/29 01:42:00;;;;;;;;;;;16.40;77.80;;;;;;6156161;23;19909;-90
2023/05/29 01:44:26;;;;;;;;;;;16.40;77.80;;;;;;6155371;23;19912;-90
2023/05/29 01:46:52;;;;;;;;;;;16.40;77.90;;;;;;6154861;23;20306;-90
2023/05/29 01:49:18;;;;;;;;;;;16.30;77.80;;;;;;6154402;23;19956;-90
2023/05/29 01:51:44;;;;;;;;;;;16.30;77.80;;;;;;6154813;23;20285;-89
2023/05/29 01:54:09;;;;;;;;;;;16.30;77.60;;;;;;6156787;23;19967;-90
2023/05/29 01:56:36;;;;;;;;;;;16.30;77.70;;;;;;6154846;23;19911;-89
2023/05/29 01:59:02;;;;;;;;;;;16.30;77.60;;;;;;6154626;23;19908;-89
2023/05/29 02:01:27;;;;;;;;;;;16.30;77.80;;;;;;6154598;23;19995;-90
2023/05/29 02:03:53;;;;;;;;;;;16.30;77.60;;;;;;6154959;23;19904;-90
2023/05/29 02:06:19;;;;;;;;;;;16.30;77.70;;;;;;6154199;23;19909;-90
2023/05/29 02:08:44;;;;;;;;;;;16.30;77.60;;;;;;6154393;23;19913;-90
2023/05/29 02:11:10;;;;;;;;;;;16.30;77.70;;;;;;6156272;23;19912;-90
2023/05/29 02:13:35;;;;;;;;;;;16.30;77.70;;;;;;6152842;23;19912;-90
2023/05/29 02:16:01;;;;;;;;;;;16.20;77.60;;;;;;6154289;23;19905;-90
2023/05/29 02:18:26;;;;;;;;;;;16.30;77.60;;;;;;6154844;23;19983;-90
2023/05/29 02:20:52;;;;;;;;;;;16.30;77.60;;;;;;6154716;23;19980;-90
2023/05/29 02:23:19;;;;;;;;;;;16.30;77.80;;;;;;6154707;23;20408;-90
2023/05/29 02:25:44;;;;;;;;;;;16.30;77.70;;;;;;6154612;23;19923;-90
2023/05/29 02:28:10;;;;;;;;;;;16.30;77.80;;;;;;6153890;23;19905;-90
2023/05/29 02:30:36;;;;;;;;;;;16.20;77.50;;;;;;6153656;23;19911;-89
2023/05/29 02:33:01;;;;;;;;;;;16.20;77.70;;;;;;6154500;23;19932;-90
2023/05/29 02:35:27;;;;;;;;;;;16.20;77.60;;;;;;6154485;23;19904;-90
2023/05/29 02:37:53;;;;;;;;;;;16.20;77.60;;;;;;6153692;23;20345;-90
2023/05/29 02:40:19;;;;;;;;;;;16.20;77.50;;;;;;6153758;23;19909;-90
2023/05/29 02:42:45;;;;;;;;;;;16.20;77.60;;;;;;6154584;23;19905;-89
2023/05/29 02:45:10;;;;;;;;;;;16.20;77.70;;;;;;6154807;23;19915;-90
2023/05/29 02:47:36;;;;;;;;;;;16.20;77.60;;;;;;6155996;23;19959;-90
2023/05/29 02:50:02;;;;;;;;;;;16.20;77.50;;;;;;6154979;23;19959;-90
2023/05/29 02:52:28;;;;;;;;;;;16.20;77.60;;;;;;6154703;23;20535;-90
2023/05/29 02:54:54;;;;;;;;;;;16.20;77.50;;;;;;6154439;23;19943;-90
2023/05/29 02:57:20;;;;;;;;;;;16.20;77.50;;;;;;6154645;23;20341;-90
2023/05/29 02:59:45;;;;;;;;;;;16.20;77.60;;;;;;6154104;23;19904;-90
2023/05/29 03:02:11;;;;;;;;;;;16.20;77.70;;;;;;6154843;23;20262;-90
2023/05/29 03:04:37;;;;;;;;;;;16.20;77.60;;;;;;6154086;23;19904;-90
2023/05/29 03:07:02;;;;;;;;;;;16.20;77.60;;;;;;6155179;23;19909;-90
2023/05/29 03:09:28;;;;;;;;;;;16.20;77.70;;;;;;6154358;23;19921;-89
2023/05/29 03:11:53;;;;;;;;;;;16.20;77.50;;;;;;6154342;23;19905;-90
2023/05/29 03:14:21;;;;;;;;;;;16.20;77.50;;;;;;6153270;23;19905;-89
2023/05/29 03:16:47;;;;;;;;;;;16.10;77.50;;;;;;6154775;23;19991;-89
2023/05/29 03:19:12;;;;;;;;;;;16.10;77.50;;;;;;6153541;23;19905;-89
2023/05/29 03:21:38;;;;;;;;;;;16.10;77.50;;;;;;6153516;23;20319;-90
2023/05/29 03:24:04;;;;;;;;;;;16.10;77.50;;;;;;6154716;23;19920;-89
2023/05/29 03:26:29;;;;;;;;;;;16.10;77.50;;;;;;6154521;23;19920;-89
2023/05/29 03:28:55;;;;;;;;;;;16.10;77.60;;;;;;6154483;23;19920;-89
2023/05/29 03:31:21;;;;;;;;;;;16.10;77.70;;;;;;6153767;23;19904;-88
2023/05/29 03:33:47;;;;;;;;;;;16.10;77.60;;;;;;6153560;23;19988;-88
2023/05/29 03:36:12;;;;;;;;;;;16.10;77.60;;;;;;6155859;23;19911;-88
2023/05/29 03:38:38;;;;;;;;;;;16.10;77.70;;;;;;6153826;23;19983;-88
2023/05/29 03:41:03;;;;;;;;;;;16.10;77.70;;;;;;6155058;23;20007;-89
2023/05/29 03:43:29;;;;;;;;;;;16.10;77.60;;;;;;6155380;23;19912;-89
2023/05/29 03:45:54;;;;;;;;;;;16.10;77.60;;;;;;6156119;23;19909;-88
2023/05/29 03:48:20;;;;;;;;;;;16.10;77.80;;;;;;6155254;23;20307;-88
2023/05/29 03:50:46;;;;;;;;;;;16.10;77.90;;;;;;6153965;23;19991;-90
2023/05/29 03:53:11;;;;;;;;;;;16.10;77.70;;;;;;6153234;23;19960;-89
2023/05/29 03:55:37;;;;;;;;;;;16.10;77.70;;;;;;6153679;23;20257;-89
2023/05/29 03:58:02;;;;;;;;;;;16.10;77.80;;;;;;6154420;23;19904;-89
2023/05/29 04:00:28;;;;;;;;;;;16.10;77.80;;;;;;6153947;23;19908;-89
2023/05/29 04:02:55;;;;;;;;;;;16.10;77.70;;;;;;6153662;23;19939;-89
2023/05/29 04:05:20;;;;;;;;;;;16.10;77.90;;;;;;6153582;23;19908;-89
2023/05/29 04:07:46;;;;;;;;;;;16.10;77.70;;;;;;6154216;23;19904;-89
2023/05/29 04:10:11;;;;;;;;;;;16.10;77.80;;;;;;6153847;23;20341;-89
2023/05/29 04:12:37;;;;;;;;;;;16.10;77.90;;;;;;6155221;23;19908;-89
2023/05/29 04:15:02;;;;;;;;;;;16.10;78.00;;;;;;6152924;23;19908;-89
2023/05/29 04:17:28;;;;;;;;;;;16.10;77.90;;;;;;6154394;23;19915;-89
2023/05/29 04:19:53;;;;;;;;;;;16.10;77.80;;;;;;6153741;23;19984;-89
2023/05/29 04:22:19;;;;;;;;;;;16.10;78.00;;;;;;6153100;23;19912;-89
2023/05/29 04:24:45;;;;;;;;;;;16.10;77.90;;;;;;6153326;23;19916;-88
2023/05/29 04:27:12;;;;;;;;;;;16.10;78.00;;;;;;6153946;23;19947;-89
2023/05/29 04:29:40;;;;;;;;;;;16.10;78.10;;;;;;6152802;23;19917;-89
2023/05/29 04:32:06;;;;;;;;;;;16.10;78.00;;;;;;6153145;23;19908;-89
2023/05/29 04:34:31;;;;;;;;;;;16.10;78.10;;;;;;6153541;23;20412;-89
2023/05/29 04:36:58;;;;;;;;;;;16.10;78.20;;;;;;6152592;23;19935;-88
2023/05/29 04:39:24;;;;;;;;;;;16.10;78.20;;;;;;6153349;23;19948;-89
2023/05/29 04:41:51;;;;;;;;;;;16.10;78.20;;;;;;6155544;23;19936;-89
2023/05/29 04:44:19;;;;;;;;;;;16.10;78.10;;;;;;6153892;23;19905;-89
2023/05/29 04:46:44;;;;;;;;;;;16.10;78.30;;;;;;6155355;23;19905;-88
2023/05/29 04:49:12;;;;;;;;;;;16.10;78.20;;;;;;6154005;23;19916;-89
2023/05/29 04:51:40;;;;;;;;;;;16.10;78.40;;;;;;6152860;23;19916;-89
2023/05/29 04:54:06;;;;;;;;;;;16.10;78.30;;;;;;6151649;23;19905;-89
2023/05/29 04:56:32;;;;;;;;;;;16.10;78.40;;;;;;6152914;23;19911;-90
2023/05/29 04:58:58;;;;;;;;;;;16.10;78.50;;;;;;6154057;23;19908;-89
2023/05/29 05:01:24;;;;;;;;;;;16.10;78.50;;;;;;6153451;23;19943;-89
2023/05/29 05:03:49;;;;;;;;;;;16.10;78.60;;;;;;6153004;23;19905;-89
2023/05/29 05:06:16;;;;;;;;;;;16.10;78.60;;;;;;6153338;23;20423;-89
2023/05/29 05:08:42;;;;;;;;;;;16.10;78.60;;;;;;6153116;23;19920;-89
2023/05/29 05:11:07;;;;;;;;;;;16.10;78.60;;;;;;6152788;23;19908;-89
2023/05/29 05:13:33;;;;;;;;;;;16.10;78.60;;;;;;6153737;23;19908;-89
2023/05/29 05:15:58;;;;;;;;;;;16.10;78.60;;;;;;6153644;23;19960;-89
2023/05/29 05:18:24;;;;;;;;;;;16.10;78.60;;;;;;6153997;23;19958;-89
2023/05/29 05:20:50;;;;;;;;;;;16.20;78.80;;;;;;6153807;23;19904;-89
2023/05/29 05:23:15;;;;;;;;;;;16.20;78.80;;;;;;6154221;23;19951;-89
2023/05/29 05:25:41;;;;;;;;;;;16.10;78.70;;;;;;6153544;23;19919;-89
2023/05/29 05:28:07;;;;;;;;;;;16.20;78.80;;;;;;6153408;23;19911;-89
2023/05/29 05:30:33;;;;;;;;;;;16.20;78.80;;;;;;6153885;23;19954;-89
2023/05/29 05:32:59;;;;;;;;;;;16.30;78.90;;;;;;6152822;23;19905;-90
2023/05/29 05:35:24;;;;;;;;;;;16.30;78.90;;;;;;6152485;23;19971;-89
2023/05/29 05:37:50;;;;;;;;;;;16.30;78.80;;;;;;6153467;23;19905;-90
2023/05/29 05:40:15;;;;;;;;;;;16.20;78.80;;;;;;6153472;23;19904;-89
2023/05/29 05:42:41;;;;;;;;;;;16.30;78.80;;;;;;6153838;23;19932;-89
2023/05/29 05:45:06;;;;;;;;;;;16.30;78.70;;;;;;6154811;23;19911;-89
2023/05/29 05:47:32;;;;;;;;;;;16.30;78.70;;;;;;6155122;23;19988;-89
2023/05/29 05:49:58;;;;;;;;;;;16.40;78.80;;;;;;6155209;23;19943;-89
2023/05/29 05:52:25;;;;;;;;;;;16.40;78.80;;;;;;6155068;23;20211;-89
2023/05/29 05:54:51;;;;;;;;;;;16.40;78.80;;;;;;6154456;23;19962;-88
2023/05/29 05:57:17;;;;;;;;;;;16.40;78.80;;;;;;6155330;23;19995;-89
2023/05/29 05:59:42;;;;;;;;;;;16.40;78.70;;;;;;6155434;23;19904;-89
2023/05/29 06:02:08;;;;;;;;;;;16.50;78.70;;;;;;6154712;23;19908;-89
2023/05/29 06:04:33;;;;;;;;;;;16.50;78.70;;;;;;6154509;23;19910;-90
2023/05/29 06:06:59;;;;;;;;;;;16.50;78.70;;;;;;6156085;23;19988;-89
2023/05/29 06:09:25;;;;;;;;;;;16.50;78.60;;;;;;6154532;23;19913;-90
2023/05/29 06:11:51;;;;;;;;;;;16.60;78.70;;;;;;6154808;23;19904;-90
2023/05/29 06:14:16;;;;;;;;;;;16.60;78.60;;;;;;6154670;23;19915;-89
2023/05/29 06:16:42;;;;;;;;;;;16.60;78.50;;;;;;6154787;23;19904;-89
2023/05/29 06:19:08;;;;;;;;;;;16.70;78.50;;;;;;6154170;23;20357;-89
2023/05/29 06:21:34;;;;;;;;;;;16.70;78.40;;;;;;6155656;23;19904;-89
2023/05/29 06:23:59;;;;;;;;;;;16.70;78.30;;;;;;6155412;23;19916;-89
2023/05/29 06:26:25;;;;;;;;;;;16.70;78.20;;;;;;6155531;23;19912;-89
2023/05/29 06:28:51;;;;;;;;;;;16.80;78.10;;;;;;6154565;23;19919;-89
2023/05/29 06:31:16;;;;;;;;;;;16.80;78.00;;;;;;6154547;23;19911;-90
2023/05/29 06:33:42;;;;;;;;;;;16.90;77.90;;;;;;6153454;23;19905;-89
2023/05/29 06:36:08;;;;;;;;;;;16.90;77.90;;;;;;6153870;23;19913;-89
2023/05/29 06:38:33;;;;;;;;;;;17.00;77.80;;;;;;6155043;23;19904;-89
2023/05/29 06:40:59;;;;;;;;;;;17.00;77.70;;;;;;6155246;23;19905;-90
2023/05/29 06:43:25;;;;;;;;;;;17.10;77.70;;;;;;6154838;23;20315;-89
2023/05/29 06:45:51;;;;;;;;;;;17.10;77.50;;;;;;6154455;23;19911;-88
2023/05/29 06:48:16;;;;;;;;;;;17.10;77.40;;;;;;6154868;23;19908;-89
2023/05/29 06:50:42;;;;;;;;;;;17.20;77.30;;;;;;6154952;23;19908;-89
2023/05/29 06:53:07;;;;;;;;;;;17.20;77.10;;;;;;6156319;23;20311;-89
2023/05/29 06:55:33;;;;;;;;;;;17.30;76.90;;;;;;6153490;23;19908;-90
2023/05/29 06:57:58;;;;;;;;;;;17.30;76.80;;;;;;6154681;23;19909;-90
2023/05/29 07:00:24;;;;;;;;;;;17.40;76.70;;;;;;6155816;23;19908;-89
2023/05/29 07:02:50;;;;;;;;;;;17.40;76.60;;;;;;6154753;23;20310;-89
2023/05/29 07:05:16;;;;;;;;;;;17.50;76.40;;;;;;6154784;23;20274;-90
2023/05/29 07:07:42;;;;;;;;;;;17.50;76.30;;;;;;6155839;23;19905;-91
2023/05/29 07:10:07;;;;;;;;;;;17.60;76.10;;;;;;6155957;23;19917;-89
2023/05/29 07:12:33;;;;;;;;;;;17.60;75.80;;;;;;6154999;23;19905;-90
2023/05/29 07:14:58;;;;;;;;;;;17.60;75.70;;;;;;6154475;23;19909;-90
2023/05/29 07:17:24;;;;;;;;;;;17.70;75.40;;;;;;6154349;23;19958;-89
2023/05/29 07:19:49;;;;;;;;;;;17.70;75.40;;;;;;6155020;23;20273;-89
2023/05/29 07:22:15;;;;;;;;;;;17.70;75.30;;;;;;6155308;23;19911;-90
2023/05/29 07:24:41;;;;;;;;;;;17.80;75.40;;;;;;6154453;23;20318;-89
2023/05/29 07:27:06;;;;;;;;;;;17.80;75.20;;;;;;6153705;23;19905;-89
2023/05/29 07:29:32;;;;;;;;;;;17.90;75.20;;;;;;6153535;23;19912;-90
2023/05/29 07:31:57;;;;;;;;;;;17.90;75.10;;;;;;6153937;23;19916;-89
2023/05/29 07:34:23;;;;;;;;;;;17.90;75.00;;;;;;6153807;23;19911;-90
2023/05/29 07:37:00;;;;;;;;;;;18.00;75.00;;;;;;6153667;23;19955;-91
2023/05/29 07:39:25;;;;;;;;;;;18.00;74.90;;;;;;6154236;23;20322;-91
2023/05/29 07:41:54;;;;;;;;;;;18.00;74.90;;;;;;6153472;23;19943;-91
2023/05/29 07:44:20;;;;;;;;;;;18.30;74.90;;;;;;6153498;23;19995;-90
2023/05/29 07:46:45;;;;;;;;;;;18.10;74.60;;;;;;6154042;23;19912;-91
2023/05/29 07:49:11;;;;;;;;;;;18.20;74.60;;;;;;6154052;23;19977;-91
2023/05/29 07:51:36;;;;;;;;;;;18.20;74.40;;;;;;6153241;23;19904;-90
2023/05/29 07:54:02;;;;;;;;;;;18.20;74.40;;;;;;6154407;23;19927;-90
2023/05/29 07:56:28;;;;;;;;;;;18.30;74.30;;;;;;6153111;23;20306;-91
2023/05/29 07:58:54;;;;;;;;;;;18.30;74.10;;;;;;6155334;23;19904;-90
2023/05/29 08:01:21;;;;;;;;;;;18.40;74.00;;;;;;6154265;23;19987;-91
2023/05/29 08:03:47;;;;;;;;;;;18.40;73.80;;;;;;6154137;23;20230;-91
2023/05/29 08:06:12;;;;;;;;;;;18.40;73.60;;;;;;6154826;23;20337;-91
2023/05/29 08:08:38;;;;;;;;;;;18.50;73.60;;;;;;6153836;23;19917;-91
2023/05/29 08:11:03;;;;;;;;;;;18.50;73.40;;;;;;6153687;23;19912;-91
2023/05/29 08:13:30;;;;;;;;;;;18.50;73.30;;;;;;6153930;23;19984;-91
2023/05/29 08:15:55;;;;;;;;;;;18.50;73.20;;;;;;6153389;23;19912;-90
2023/05/29 08:18:21;;;;;;;;;;;18.60;73.20;;;;;;6153514;23;19905;-90
2023/05/29 08:20:47;;;;;;;;;;;18.60;73.00;;;;;;6153388;23;19960;-90
2023/05/29 08:23:13;;;;;;;;;;;18.70;72.80;;;;;;6153905;23;19940;-90
2023/05/29 08:25:38;;;;;;;;;;;18.60;72.70;;;;;;6153590;23;19939;-91
2023/05/29 08:28:04;;;;;;;;;;;18.70;72.60;;;;;;6154048;23;20269;-92
2023/05/29 08:30:29;;;;;;;;;;;18.70;72.70;;;;;;6153464;23;20454;-91
2023/05/29 08:32:55;;;;;;;;;;;18.70;72.60;;;;;;6153622;23;20072;-90
2023/05/29 08:35:20;;;;;;;;;;;18.80;72.70;;;;;;6153701;23;19904;-92
2023/05/29 08:37:46;;;;;;;;;;;18.80;72.70;;;;;;6153638;23;19904;-89
2023/05/29 08:40:12;;;;;;;;;;;18.80;72.60;;;;;;6154970;23;19905;-93
2023/05/29 08:42:41;;;;;;;;;;;18.80;72.60;;;;;;6153706;23;19911;-91
2023/05/29 08:45:08;;;;;;;;;;;18.80;72.60;;;;;;6153747;23;19932;-91
2023/05/29 08:47:33;;;;;;;;;;;18.90;72.50;;;;;;6153793;23;19908;-92
2023/05/29 08:50:00;;;;;;;;;;;18.90;73.20;;;;;;6153305;23;19964;-92
2023/05/29 08:52:26;;;;;;;;;;;18.90;72.50;;;;;;6153951;23;19904;-91
2023/05/29 08:54:55;;;;;;;;;;;18.90;72.40;;;;;;6153680;23;19909;-92
2023/05/29 08:57:21;;;;;;;;;;;18.90;72.30;;;;;;6152757;23;19908;-92
2023/05/29 08:59:49;;;;;;;;;;;18.90;72.30;;;;;;6153795;23;20000;-92
2023/05/29 09:02:15;;;;;;;;;;;19.00;72.30;;;;;;6153025;23;19911;-91
2023/05/29 09:04:41;;;;;;;;;;;19.00;72.20;;;;;;6154177;23;19904;-92
2023/05/29 09:07:08;;;;;;;;;;;19.00;72.20;;;;;;6153749;23;20226;-91
2023/05/29 09:09:34;;;;;;;;;;;19.00;72.00;;;;;;6153867;23;19923;-91
2023/05/29 09:12:00;;;;;;;;;;;19.00;71.90;;;;;;6153116;23;19909;-92
2023/05/29 09:14:36;;;;;;;;;;;19.00;71.80;;;;;;6153640;23;20662;-92
2023/05/29 09:17:02;;;;;;;;;;;19.10;71.80;;;;;;6154982;23;20470;-91
2023/05/29 09:19:28;;;;;;;;;;;19.10;71.70;;;;;;6155937;23;19904;-94
2023/05/29 09:22:00;;;;;;;;;;;19.10;71.70;;;;;;6155275;23;20215;-91
2023/05/29 09:24:27;;;;;;;;;;;19.10;71.70;;;;;;6155738;23;19905;-92
2023/05/29 09:26:53;;;;;;;;;;;19.10;71.40;;;;;;6156044;23;19905;-91
2023/05/29 09:29:18;;;;;;;;;;;19.20;71.40;;;;;;6156112;23;19921;-91
2023/05/29 09:31:47;;;;;;;;;;;19.20;71.50;;;;;;6156020;23;19913;-91
2023/05/29 09:34:13;;;;;;;;;;;19.20;71.30;;;;;;6156240;23;19988;-91
2023/05/29 09:36:38;;;;;;;;;;;19.20;71.20;;;;;;6156376;23;19936;-91
2023/05/29 09:39:04;;;;;;;;;;;19.20;71.20;;;;;;6155533;23;19904;-90
2023/05/29 09:41:33;;;;;;;;;;;19.20;71.20;;;;;;6155452;23;19904;-90
2023/05/29 09:44:00;;;;;;;;;;;19.20;71.20;;;;;;6155747;23;20341;-91
2023/05/29 09:46:26;;;;;;;;;;;19.20;71.00;;;;;;6154227;23;19909;-90
2023/05/29 09:48:51;;;;;;;;;;;19.20;70.80;;;;;;6153534;23;19912;-96
2023/05/29 09:51:21;;;;;;;;;;;19.20;70.70;;;;;;6153631;23;20230;-91
2023/05/29 09:53:48;;;;;;;;;;;19.20;70.20;;;;;;6159657;23;20326;-94
2023/05/29 09:56:17;;;;;;;;;;;19.40;67.70;;;;;;6156590;23;19953;-91
2023/05/29 09:58:45;;;;;;;;;;;19.60;67.60;;;;;;6155896;23;19905;-92
2023/05/29 10:01:12;;;;;;;;;;;19.60;67.80;;;;;;6155664;23;19939;-91
2023/05/29 10:03:38;;;;;;;;;;;19.50;68.20;;;;;;6155834;23;19905;-92
2023/05/29 10:06:04;;;;;;;;;;;19.50;68.60;;;;;;6156443;23;19933;-92
2023/05/29 10:08:30;;;;;;;;;;;19.40;68.80;;;;;;6155492;23;19926;-91
2023/05/29 10:10:59;;;;;;;;;;;19.30;69.10;;;;;;6155726;23;19958;-91
2023/05/29 10:13:26;;;;;;;;;;;19.30;69.10;;;;;;6156455;23;19909;-91
2023/05/29 10:15:54;;;;;;;;;;;19.30;69.30;;;;;;6156503;23;19905;-92
2023/05/29 10:18:23;;;;;;;;;;;19.20;69.20;;;;;;6158614;23;19904;-92
2023/05/29 10:20:55;;;;;;;;;;;19.30;69.40;;;;;;6155977;23;19931;-94
2023/05/29 10:23:24;;;;;;;;;;;19.20;69.50;;;;;;6155958;23;20323;-91
2023/05/29 10:25:52;;;;;;;;;;;19.20;69.60;;;;;;6156976;23;19935;-91
2023/05/29 10:28:18;;;;;;;;;;;19.20;69.70;;;;;;6155450;23;20011;-92
2023/05/29 10:30:47;;;;;;;;;;;19.20;69.80;;;;;;6155470;23;20250;-91
2023/05/29 10:33:27;;;;;;;;;;;19.20;69.90;;;;;;6155596;23;19983;-91
2023/05/29 10:35:55;;;;;;;;;;;19.10;70.00;;;;;;6156190;23;19921;-92
2023/05/29 10:38:21;;;;;;;;;;;19.10;70.00;;;;;;6155916;23;20015;-91
2023/05/29 10:40:46;;;;;;;;;;;19.10;70.10;;;;;;6155874;23;19912;-92
2023/05/29 10:43:32;;;;;;;;;;;19.10;70.30;;;;;;6156501;23;19905;-91
2023/05/29 10:45:57;;;;;;;;;;;19.10;70.40;;;;;;6156373;23;19911;-92
2023/05/29 10:48:28;;;;;;;;;;;19.00;70.60;;;;;;6156436;23;19975;-91
2023/05/29 10:50:53;;;;;;;;;;;19.00;70.70;;;;;;6158435;23;19936;-91
2023/05/29 10:53:23;;;;;;;;;;;19.00;70.80;;;;;;6156401;23;20526;-92
2023/05/29 10:55:50;;;;;;;;;;;19.00;70.80;;;;;;6156162;23;19909;-91
2023/05/29 10:58:20;;;;;;;;;;;18.90;70.80;;;;;;6156769;23;20468;-93
2023/05/29 11:00:46;;;;;;;;;;;18.90;71.10;;;;;;6156779;23;19905;-91
2023/05/29 11:03:15;;;;;;;;;;;18.90;71.10;;;;;;6156368;23;19905;-91
2023/05/29 11:05:57;;;;;;;;;;;18.90;71.10;;;;;;6156351;23;19908;-92
2023/05/29 11:08:56;;;;;;;;;;;18.90;71.70;;;;;;6156382;23;19911;-94
2023/05/29 11:11:27;;;;;;;;;;;18.80;71.10;;;;;;6039069;23;19971;-90
2023/05/29 11:13:53;;;;;;;;;;;18.80;71.10;;;;;;6039413;23;20263;-92
2023/05/29 11:16:28;;;;;;;;;;;18.80;71.30;;;;;;6015463;23;19917;-93
2023/05/29 11:18:53;;;;;;;;;;;18.80;71.20;;;;;;6039604;23;20268;-90
2023/05/29 11:21:27;;;;;;;;;;;18.70;71.40;;;;;;6015810;23;19917;-94
2023/05/29 11:23:53;;;;;;;;;;;18.70;71.30;;;;;;6039665;23;20386;-91
2023/05/29 11:26:22;;;;;;;;;;;18.70;71.40;;;;;;6015439;23;19922;-93
2023/05/29 11:28:48;;;;;;;;;;;18.70;71.60;;;;;;6016050;23;19910;-91
2023/05/29 11:31:14;;;;;;;;;;;18.60;71.30;;;;;;6039289;23;19953;-92
2023/05/29 11:33:43;;;;;;;;;;;18.60;71.30;;;;;;6015191;23;19969;-92
2023/05/29 11:36:09;;;;;;;;;;;18.60;71.50;;;;;;6014952;23;19905;-92
2023/05/29 11:38:35;;;;;;;;;;;18.60;71.40;;;;;;6014952;23;19945;-91
2023/05/29 11:41:01;;;;;;;;;;;18.60;71.30;;;;;;6014110;23;19906;-92
2023/05/29 11:43:27;;;;;;;;;;;18.60;71.50;;;;;;6013609;23;19922;-92
2023/05/29 11:45:52;;;;;;;;;;;18.50;71.50;;;;;;6021602;23;20312;-92
2023/05/29 11:48:18;;;;;;;;;;;18.60;71.40;;;;;;6155218;23;19911;-94
2023/05/29 11:50:44;;;;;;;;;;;18.50;71.40;;;;;;6154702;23;19912;-92
2023/05/29 11:53:11;;;;;;;;;;;18.60;71.30;;;;;;6154902;23;19976;-93
2023/05/29 11:55:36;;;;;;;;;;;18.50;71.30;;;;;;6154998;23;19909;-94
2023/05/29 11:58:02;;;;;;;;;;;18.50;71.40;;;;;;6154958;23;19905;-92
2023/05/29 12:00:32;;;;;;;;;;;18.50;71.30;;;;;;6155187;23;20324;-96
2023/05/29 12:03:03;;;;;;;;;;;18.50;70.90;;;;;;6154907;23;20318;-93
2023/05/29 12:05:30;;;;;;;;;;;18.50;71.30;;;;;;6154974;23;19928;-91
2023/05/29 12:07:56;;;;;;;;;;;18.50;70.90;;;;;;6155000;23;19975;-92
2023/05/29 12:10:22;;;;;;;;;;;18.50;71.10;;;;;;6155160;23;19959;-90
2023/05/29 12:12:48;;;;;;;;;;;18.50;70.60;;;;;;6154906;23;19909;-92
2023/05/29 12:15:14;;;;;;;;;;;18.50;70.60;;;;;;6154501;23;19979;-92
2023/05/29 12:17:40;;;;;;;;;;;18.40;70.30;;;;;;6155893;23;19947;-91
2023/05/29 12:20:08;;;;;;;;;;;18.40;70.70;;;;;;6155473;23;19915;-93
2023/05/29 12:22:35;;;;;;;;;;;18.40;70.10;;;;;;6154648;23;19972;-90
2023/05/29 12:25:07;;;;;;;;;;;18.40;70.20;;;;;;6154450;23;20322;-91
2023/05/29 12:27:41;;;;;;;;;;;18.40;69.80;;;;;;6154870;23;19908;-91
2023/05/29 12:30:08;;;;;;;;;;;18.40;69.90;;;;;;6155722;23;19951;-90
2023/05/29 12:32:38;;;;;;;;;;;18.40;69.70;;;;;;6154510;23;19911;-91
2023/05/29 12:35:09;;;;;;;;;;;18.40;69.80;;;;;;6154499;23;19916;-91
2023/05/29 12:37:35;;;;;;;;;;;18.40;70.10;;;;;;6154566;23;19904;-92
2023/05/29 12:40:11;;;;;;;;;;;18.40;69.70;;;;;;6155214;23;19911;-91
2023/05/29 12:42:39;;;;;;;;;;;18.40;69.80;;;;;;6154503;23;19905;-94
2023/05/29 12:45:07;;;;;;;;;;;18.30;69.50;;;;;;6153869;23;19915;-92
2023/05/29 12:47:33;;;;;;;;;;;18.30;69.70;;;;;;6154435;23;19927;-92
2023/05/29 12:49:59;;;;;;;;;;;18.30;69.60;;;;;;6154437;23;19923;-91
2023/05/29 12:52:24;;;;;;;;;;;18.30;69.50;;;;;;6154420;23;19984;-92
2023/05/29 12:54:50;;;;;;;;;;;18.30;69.30;;;;;;6153978;23;19905;-92
2023/05/29 12:57:16;;;;;;;;;;;18.30;68.90;;;;;;6153625;23;19940;-91
2023/05/29 12:59:41;;;;;;;;;;;18.30;69.00;;;;;;6153695;23;19905;-92
2023/05/29 13:02:07;;;;;;;;;;;18.30;69.20;;;;;;6154474;23;19936;-91
2023/05/29 13:04:33;;;;;;;;;;;18.30;69.00;;;;;;6154000;23;19905;-90
2023/05/29 13:06:59;;;;;;;;;;;18.30;69.40;;;;;;6154388;23;20385;-90
2023/05/29 13:09:25;;;;;;;;;;;18.30;69.30;;;;;;6154038;23;19971;-91
2023/05/29 13:11:50;;;;;;;;;;;18.30;69.20;;;;;;6154228;23;19905;-90
2023/05/29 13:14:16;;;;;;;;;;;18.30;69.00;;;;;;6155096;23;19905;-91
2023/05/29 13:16:41;;;;;;;;;;;18.30;69.00;;;;;;6154409;23;19979;-91
2023/05/29 13:19:07;;;;;;;;;;;18.30;68.90;;;;;;6153968;23;19904;-92
2023/05/29 13:21:32;;;;;;;;;;;18.20;68.50;;;;;;6155197;23;19904;-92
2023/05/29 13:23:58;;;;;;;;;;;18.20;69.00;;;;;;6153534;23;19904;-91
2023/05/29 13:26:25;;;;;;;;;;;18.20;68.90;;;;;;6153702;23;19920;-91
2023/05/29 13:28:51;;;;;;;;;;;18.30;68.30;;;;;;6153991;23;19984;-91
2023/05/29 13:31:17;;;;;;;;;;;18.20;68.90;;;;;;6155766;23;19936;-91
2023/05/29 13:33:43;;;;;;;;;;;18.20;68.80;;;;;;6153882;23;19963;-90
2023/05/29 13:36:08;;;;;;;;;;;18.20;68.70;;;;;;6153780;23;19959;-91
2023/05/29 13:38:34;;;;;;;;;;;18.20;68.60;;;;;;6154035;23;20314;-92
2023/05/29 13:40:59;;;;;;;;;;;18.20;68.40;;;;;;6154631;23;19908;-92
2023/05/29 13:43:25;;;;;;;;;;;18.20;68.50;;;;;;6154071;23;19912;-92
2023/05/29 13:45:50;;;;;;;;;;;18.20;68.80;;;;;;6153057;23;19927;-92
2023/05/29 13:48:16;;;;;;;;;;;18.20;68.60;;;;;;6153819;23;19905;-91
2023/05/29 13:50:41;;;;;;;;;;;18.20;68.50;;;;;;6153633;23;19999;-90
2023/05/29 13:53:07;;;;;;;;;;;18.20;68.10;;;;;;6153904;23;19909;-91
2023/05/29 13:55:32;;;;;;;;;;;18.20;68.00;;;;;;6155303;23;19905;-89
2023/05/29 13:57:58;;;;;;;;;;;18.20;67.80;;;;;;6154055;23;19991;-91
2023/05/29 14:00:23;;;;;;;;;;;18.20;68.00;;;;;;6154119;23;19905;-91
2023/05/29 14:02:49;;;;;;;;;;;18.20;67.20;;;;;;6155040;23;19912;-90
2023/05/29 14:05:14;;;;;;;;;;;18.20;68.00;;;;;;6155157;23;19999;-92
2023/05/29 14:07:40;;;;;;;;;;;18.20;68.20;;;;;;6155058;23;19905;-92
2023/05/29 14:10:06;;;;;;;;;;;18.20;68.30;;;;;;6155491;23;19967;-91
2023/05/29 14:12:31;;;;;;;;;;;18.10;68.00;;;;;;6155306;23;19939;-92